sensor_id;sensor_type;location;lat;lon;timestamp;P1;durP1;ratioP1;P2;durP2;ratioP2
58250;SDS011;51449;51.676;5.812;2023-05-07T00:01:54;7.73;;;6.73;;
58250;SDS011;51449;51.676;5.812;2023-05-07T00:04:16;6.97;;;6.27;;
58250;SDS011;51449;51.676;5.812;2023-05-07T00:06:38;7.73;;;6.93;;
58250;SDS011;51449;51.676;5.812;2023-05-07T00:09:00;7.20;;;6.53;;
58250;SDS011;51449;51.676;5.812;2023-05-07T00:11:23;8.37;;;6.53;;
58250;SDS011;51449;51.676;5.812;2023-05-07T00:13:45;8.30;;;7.40;;
58250;SDS011;51449;51.676;5.812;2023-05-07T00:16:06;8.83;;;7.17;;
58250;SDS011;51449;51.676;5.812;2023-05-07T00:18:28;9.37;;;7.73;;
58250;SDS011;51449;51.676;5.812;2023-05-07T00:20:50;10.77;;;7.30;;
58250;SDS011;51449;51.676;5.812;2023-05-07T00:23:11;11.17;;;8.30;;
58250;SDS011;51449;51.676;5.812;2023-05-07T00:25:33;9.97;;;8.07;;
58250;SDS011;51449;51.676;5.812;2023-05-07T00:27:55;8.87;;;7.93;;
58250;SDS011;51449;51.676;5.812;2023-05-07T00:30:16;9.93;;;7.83;;
58250;SDS011;51449;51.676;5.812;2023-05-07T00:32:38;9.67;;;8.17;;
58250;SDS011;51449;51.676;5.812;2023-05-07T00:35:00;9.87;;;7.77;;
58250;SDS011;51449;51.676;5.812;2023-05-07T00:37:22;11.40;;;8.87;;
58250;SDS011;51449;51.676;5.812;2023-05-07T00:39:43;9.00;;;8.20;;
58250;SDS011;51449;51.676;5.812;2023-05-07T00:42:05;9.83;;;8.83;;
58250;SDS011;51449;51.676;5.812;2023-05-07T00:44:27;10.77;;;8.57;;
58250;SDS011;51449;51.676;5.812;2023-05-07T00:46:49;9.83;;;8.83;;
58250;SDS011;51449;51.676;5.812;2023-05-07T00:49:11;11.57;;;9.43;;
58250;SDS011;51449;51.676;5.812;2023-05-07T00:51:33;10.07;;;8.40;;
58250;SDS011;51449;51.676;5.812;2023-05-07T00:53:55;10.40;;;9.27;;
58250;SDS011;51449;51.676;5.812;2023-05-07T00:56:17;11.47;;;9.87;;
58250;SDS011;51449;51.676;5.812;2023-05-07T00:58:40;12.13;;;10.80;;
58250;SDS011;51449;51.676;5.812;2023-05-07T01:01:02;11.53;;;10.33;;
58250;SDS011;51449;51.676;5.812;2023-05-07T01:03:24;13.03;;;10.00;;
58250;SDS011;51449;51.676;5.812;2023-05-07T01:05:47;11.83;;;9.87;;
58250;SDS011;51449;51.676;5.812;2023-05-07T01:08:12;11.93;;;10.30;;
58250;SDS011;51449;51.676;5.812;2023-05-07T01:10:36;12.25;;;10.35;;
58250;SDS011;51449;51.676;5.812;2023-05-07T01:12:58;11.63;;;10.53;;
58250;SDS011;51449;51.676;5.812;2023-05-07T01:15:21;12.83;;;10.33;;
58250;SDS011;51449;51.676;5.812;2023-05-07T01:17:44;12.10;;;10.90;;
58250;SDS011;51449;51.676;5.812;2023-05-07T01:20:13;12.57;;;11.10;;
58250;SDS011;51449;51.676;5.812;2023-05-07T01:22:37;15.13;;;10.87;;
58250;SDS011;51449;51.676;5.812;2023-05-07T01:25:00;13.68;;;11.45;;
58250;SDS011;51449;51.676;5.812;2023-05-07T01:27:23;14.13;;;11.40;;
58250;SDS011;51449;51.676;5.812;2023-05-07T01:29:46;13.87;;;11.37;;
58250;SDS011;51449;51.676;5.812;2023-05-07T01:32:07;12.57;;;11.27;;
58250;SDS011;51449;51.676;5.812;2023-05-07T01:34:31;16.43;;;12.83;;
58250;SDS011;51449;51.676;5.812;2023-05-07T01:36:55;13.48;;;11.88;;
58250;SDS011;51449;51.676;5.812;2023-05-07T01:39:19;15.00;;;12.32;;
58250;SDS011;51449;51.676;5.812;2023-05-07T01:41:41;15.33;;;12.47;;
58250;SDS011;51449;51.676;5.812;2023-05-07T01:44:04;13.30;;;11.90;;
58250;SDS011;51449;51.676;5.812;2023-05-07T01:46:27;13.90;;;12.40;;
58250;SDS011;51449;51.676;5.812;2023-05-07T01:48:51;14.57;;;12.80;;
58250;SDS011;51449;51.676;5.812;2023-05-07T01:51:14;14.85;;;12.88;;
58250;SDS011;51449;51.676;5.812;2023-05-07T01:53:37;16.70;;;13.07;;
58250;SDS011;51449;51.676;5.812;2023-05-07T01:56:00;15.77;;;13.57;;
58250;SDS011;51449;51.676;5.812;2023-05-07T01:58:22;14.43;;;12.90;;
58250;SDS011;51449;51.676;5.812;2023-05-07T02:00:44;15.37;;;13.73;;
58250;SDS011;51449;51.676;5.812;2023-05-07T02:03:05;15.87;;;14.03;;
58250;SDS011;51449;51.676;5.812;2023-05-07T02:05:45;17.30;;;14.17;;
58250;SDS011;51449;51.676;5.812;2023-05-07T02:08:19;16.47;;;13.33;;
58250;SDS011;51449;51.676;5.812;2023-05-07T02:10:41;16.00;;;13.77;;
58250;SDS011;51449;51.676;5.812;2023-05-07T02:13:03;15.33;;;13.53;;
58250;SDS011;51449;51.676;5.812;2023-05-07T02:15:25;15.83;;;14.03;;
58250;SDS011;51449;51.676;5.812;2023-05-07T02:18:00;16.30;;;13.27;;
58250;SDS011;51449;51.676;5.812;2023-05-07T02:20:25;15.50;;;13.60;;
58250;SDS011;51449;51.676;5.812;2023-05-07T02:22:47;16.60;;;14.80;;
58250;SDS011;51449;51.676;5.812;2023-05-07T02:25:09;17.83;;;15.27;;
58250;SDS011;51449;51.676;5.812;2023-05-07T02:27:30;16.47;;;14.80;;
58250;SDS011;51449;51.676;5.812;2023-05-07T02:29:52;17.57;;;15.63;;
58250;SDS011;51449;51.676;5.812;2023-05-07T02:32:14;17.50;;;15.77;;
58250;SDS011;51449;51.676;5.812;2023-05-07T02:34:35;18.00;;;15.83;;
58250;SDS011;51449;51.676;5.812;2023-05-07T02:36:57;19.47;;;16.37;;
58250;SDS011;51449;51.676;5.812;2023-05-07T02:39:20;18.77;;;16.77;;
58250;SDS011;51449;51.676;5.812;2023-05-07T02:41:42;19.27;;;16.60;;
58250;SDS011;51449;51.676;5.812;2023-05-07T02:44:04;20.90;;;17.90;;
58250;SDS011;51449;51.676;5.812;2023-05-07T02:46:26;18.80;;;16.43;;
58250;SDS011;51449;51.676;5.812;2023-05-07T02:48:55;19.30;;;17.20;;
58250;SDS011;51449;51.676;5.812;2023-05-07T02:51:20;24.37;;;18.23;;
58250;SDS011;51449;51.676;5.812;2023-05-07T02:53:48;19.37;;;16.63;;
58250;SDS011;51449;51.676;5.812;2023-05-07T02:56:09;19.73;;;17.63;;
58250;SDS011;51449;51.676;5.812;2023-05-07T02:58:31;21.10;;;17.87;;
58250;SDS011;51449;51.676;5.812;2023-05-07T03:00:54;22.07;;;18.23;;
58250;SDS011;51449;51.676;5.812;2023-05-07T03:03:24;21.03;;;18.03;;
58250;SDS011;51449;51.676;5.812;2023-05-07T03:05:46;22.50;;;18.20;;
58250;SDS011;51449;51.676;5.812;2023-05-07T03:08:08;23.60;;;18.07;;
58250;SDS011;51449;51.676;5.812;2023-05-07T03:10:30;22.03;;;18.60;;
58250;SDS011;51449;51.676;5.812;2023-05-07T03:12:52;23.90;;;19.37;;
58250;SDS011;51449;51.676;5.812;2023-05-07T03:15:14;21.43;;;18.00;;
58250;SDS011;51449;51.676;5.812;2023-05-07T03:17:36;22.23;;;19.03;;
58250;SDS011;51449;51.676;5.812;2023-05-07T03:19:58;21.13;;;18.53;;
58250;SDS011;51449;51.676;5.812;2023-05-07T03:22:20;22.93;;;20.40;;
58250;SDS011;51449;51.676;5.812;2023-05-07T03:24:44;23.40;;;20.15;;
58250;SDS011;51449;51.676;5.812;2023-05-07T03:27:05;26.23;;;21.37;;
58250;SDS011;51449;51.676;5.812;2023-05-07T03:29:27;24.87;;;21.23;;
58250;SDS011;51449;51.676;5.812;2023-05-07T03:31:49;24.23;;;20.57;;
58250;SDS011;51449;51.676;5.812;2023-05-07T03:34:11;22.27;;;18.93;;
58250;SDS011;51449;51.676;5.812;2023-05-07T03:36:33;24.00;;;20.13;;
58250;SDS011;51449;51.676;5.812;2023-05-07T03:38:54;23.20;;;20.03;;
58250;SDS011;51449;51.676;5.812;2023-05-07T03:41:19;22.87;;;19.20;;
58250;SDS011;51449;51.676;5.812;2023-05-07T03:43:41;23.27;;;19.87;;
58250;SDS011;51449;51.676;5.812;2023-05-07T03:46:05;21.83;;;19.48;;
58250;SDS011;51449;51.676;5.812;2023-05-07T03:48:27;23.43;;;19.00;;
58250;SDS011;51449;51.676;5.812;2023-05-07T03:50:51;22.48;;;19.55;;
58250;SDS011;51449;51.676;5.812;2023-05-07T03:53:14;23.97;;;21.37;;
58250;SDS011;51449;51.676;5.812;2023-05-07T03:55:36;23.50;;;20.67;;
58250;SDS011;51449;51.676;5.812;2023-05-07T03:57:58;27.87;;;21.53;;
58250;SDS011;51449;51.676;5.812;2023-05-07T04:00:22;25.23;;;21.83;;
58250;SDS011;51449;51.676;5.812;2023-05-07T04:02:43;26.57;;;22.23;;
58250;SDS011;51449;51.676;5.812;2023-05-07T04:05:05;24.90;;;20.87;;
58250;SDS011;51449;51.676;5.812;2023-05-07T04:07:28;25.30;;;21.23;;
58250;SDS011;51449;51.676;5.812;2023-05-07T04:09:50;24.53;;;21.67;;
58250;SDS011;51449;51.676;5.812;2023-05-07T04:12:12;24.03;;;20.33;;
58250;SDS011;51449;51.676;5.812;2023-05-07T04:14:33;24.27;;;21.67;;
58250;SDS011;51449;51.676;5.812;2023-05-07T04:16:56;25.07;;;21.57;;
58250;SDS011;51449;51.676;5.812;2023-05-07T04:19:18;25.70;;;21.73;;
58250;SDS011;51449;51.676;5.812;2023-05-07T04:21:40;25.50;;;21.43;;
58250;SDS011;51449;51.676;5.812;2023-05-07T04:24:03;26.90;;;22.03;;
58250;SDS011;51449;51.676;5.812;2023-05-07T04:26:25;29.37;;;23.23;;
58250;SDS011;51449;51.676;5.812;2023-05-07T04:28:47;25.27;;;21.67;;
58250;SDS011;51449;51.676;5.812;2023-05-07T04:31:09;28.20;;;23.17;;
58250;SDS011;51449;51.676;5.812;2023-05-07T04:33:32;30.57;;;24.60;;
58250;SDS011;51449;51.676;5.812;2023-05-07T04:35:55;26.90;;;22.73;;
58250;SDS011;51449;51.676;5.812;2023-05-07T04:38:17;29.17;;;23.23;;
58250;SDS011;51449;51.676;5.812;2023-05-07T04:40:41;29.65;;;24.88;;
58250;SDS011;51449;51.676;5.812;2023-05-07T04:43:06;27.73;;;23.63;;
58250;SDS011;51449;51.676;5.812;2023-05-07T04:45:34;29.33;;;24.50;;
58250;SDS011;51449;51.676;5.812;2023-05-07T04:47:57;27.83;;;23.00;;
58250;SDS011;51449;51.676;5.812;2023-05-07T04:50:19;29.60;;;23.17;;
58250;SDS011;51449;51.676;5.812;2023-05-07T04:52:42;24.93;;;21.03;;
58250;SDS011;51449;51.676;5.812;2023-05-07T04:55:04;26.67;;;22.73;;
58250;SDS011;51449;51.676;5.812;2023-05-07T04:57:31;25.30;;;21.70;;
58250;SDS011;51449;51.676;5.812;2023-05-07T04:59:53;27.23;;;22.50;;
58250;SDS011;51449;51.676;5.812;2023-05-07T05:02:15;28.13;;;22.50;;
58250;SDS011;51449;51.676;5.812;2023-05-07T05:04:40;27.60;;;22.60;;
58250;SDS011;51449;51.676;5.812;2023-05-07T05:07:03;31.77;;;23.20;;
58250;SDS011;51449;51.676;5.812;2023-05-07T05:09:25;27.47;;;22.20;;
58250;SDS011;51449;51.676;5.812;2023-05-07T05:11:47;24.77;;;21.03;;
58250;SDS011;51449;51.676;5.812;2023-05-07T05:14:09;25.73;;;21.57;;
58250;SDS011;51449;51.676;5.812;2023-05-07T05:16:30;26.40;;;21.77;;
58250;SDS011;51449;51.676;5.812;2023-05-07T05:18:52;24.13;;;20.93;;
58250;SDS011;51449;51.676;5.812;2023-05-07T05:21:15;27.83;;;22.93;;
58250;SDS011;51449;51.676;5.812;2023-05-07T05:23:40;25.92;;;22.23;;
58250;SDS011;51449;51.676;5.812;2023-05-07T05:26:02;27.30;;;21.80;;
58250;SDS011;51449;51.676;5.812;2023-05-07T05:28:26;24.48;;;21.88;;
58250;SDS011;51449;51.676;5.812;2023-05-07T05:30:49;26.43;;;21.97;;
58250;SDS011;51449;51.676;5.812;2023-05-07T05:33:12;24.50;;;21.53;;
58250;SDS011;51449;51.676;5.812;2023-05-07T05:35:34;25.57;;;21.20;;
58250;SDS011;51449;51.676;5.812;2023-05-07T05:37:59;28.27;;;22.57;;
58250;SDS011;51449;51.676;5.812;2023-05-07T05:40:21;26.20;;;20.90;;
58250;SDS011;51449;51.676;5.812;2023-05-07T05:42:42;25.47;;;21.90;;
58250;SDS011;51449;51.676;5.812;2023-05-07T05:45:05;27.87;;;23.00;;
58250;SDS011;51449;51.676;5.812;2023-05-07T05:47:29;27.20;;;22.37;;
58250;SDS011;51449;51.676;5.812;2023-05-07T05:49:51;27.70;;;22.30;;
58250;SDS011;51449;51.676;5.812;2023-05-07T05:52:13;28.30;;;22.20;;
58250;SDS011;51449;51.676;5.812;2023-05-07T05:54:35;24.73;;;21.90;;
58250;SDS011;51449;51.676;5.812;2023-05-07T05:56:58;26.23;;;21.30;;
58250;SDS011;51449;51.676;5.812;2023-05-07T05:59:19;24.00;;;20.97;;
58250;SDS011;51449;51.676;5.812;2023-05-07T06:01:41;25.13;;;20.60;;
58250;SDS011;51449;51.676;5.812;2023-05-07T06:04:03;24.37;;;21.43;;
58250;SDS011;51449;51.676;5.812;2023-05-07T06:06:25;26.10;;;21.23;;
58250;SDS011;51449;51.676;5.812;2023-05-07T06:08:48;25.13;;;21.70;;
58250;SDS011;51449;51.676;5.812;2023-05-07T06:11:14;25.50;;;21.43;;
58250;SDS011;51449;51.676;5.812;2023-05-07T06:13:39;26.30;;;20.73;;
58250;SDS011;51449;51.676;5.812;2023-05-07T06:16:01;28.37;;;21.63;;
58250;SDS011;51449;51.676;5.812;2023-05-07T06:18:23;24.10;;;21.03;;
58250;SDS011;51449;51.676;5.812;2023-05-07T06:20:46;26.13;;;21.70;;
58250;SDS011;51449;51.676;5.812;2023-05-07T06:23:16;27.37;;;22.33;;
58250;SDS011;51449;51.676;5.812;2023-05-07T06:25:38;24.27;;;20.73;;
58250;SDS011;51449;51.676;5.812;2023-05-07T06:28:01;27.87;;;22.57;;
58250;SDS011;51449;51.676;5.812;2023-05-07T06:30:24;24.57;;;21.43;;
58250;SDS011;51449;51.676;5.812;2023-05-07T06:32:45;27.67;;;22.10;;
58250;SDS011;51449;51.676;5.812;2023-05-07T06:35:08;26.60;;;21.93;;
58250;SDS011;51449;51.676;5.812;2023-05-07T06:37:31;25.70;;;20.80;;
58250;SDS011;51449;51.676;5.812;2023-05-07T06:39:57;25.33;;;20.97;;
58250;SDS011;51449;51.676;5.812;2023-05-07T06:42:21;24.17;;;20.75;;
58250;SDS011;51449;51.676;5.812;2023-05-07T06:44:43;26.07;;;20.83;;
58250;SDS011;51449;51.676;5.812;2023-05-07T06:47:08;23.17;;;20.02;;
58250;SDS011;51449;51.676;5.812;2023-05-07T06:51:54;22.40;;;18.43;;
58250;SDS011;51449;51.676;5.812;2023-05-07T06:54:17;23.17;;;19.00;;
58250;SDS011;51449;51.676;5.812;2023-05-07T06:56:38;21.97;;;19.07;;
58250;SDS011;51449;51.676;5.812;2023-05-07T06:59:02;22.33;;;19.00;;
58250;SDS011;51449;51.676;5.812;2023-05-07T07:01:28;22.83;;;18.97;;
58250;SDS011;51449;51.676;5.812;2023-05-07T07:03:50;22.97;;;19.03;;
58250;SDS011;51449;51.676;5.812;2023-05-07T07:06:14;21.70;;;18.63;;
58250;SDS011;51449;51.676;5.812;2023-05-07T07:08:36;21.67;;;19.10;;
58250;SDS011;51449;51.676;5.812;2023-05-07T07:11:00;20.23;;;17.95;;
58250;SDS011;51449;51.676;5.812;2023-05-07T07:13:22;23.90;;;19.13;;
58250;SDS011;51449;51.676;5.812;2023-05-07T07:15:44;19.97;;;17.63;;
58250;SDS011;51449;51.676;5.812;2023-05-07T07:18:06;19.63;;;16.97;;
58250;SDS011;51449;51.676;5.812;2023-05-07T07:20:28;21.60;;;17.63;;
58250;SDS011;51449;51.676;5.812;2023-05-07T07:22:50;19.80;;;17.47;;
58250;SDS011;51449;51.676;5.812;2023-05-07T07:25:12;19.37;;;16.53;;
58250;SDS011;51449;51.676;5.812;2023-05-07T07:27:33;18.80;;;16.80;;
58250;SDS011;51449;51.676;5.812;2023-05-07T07:29:56;19.47;;;17.20;;
58250;SDS011;51449;51.676;5.812;2023-05-07T07:32:18;19.67;;;16.50;;
58250;SDS011;51449;51.676;5.812;2023-05-07T07:34:40;19.40;;;16.97;;
58250;SDS011;51449;51.676;5.812;2023-05-07T07:37:02;17.67;;;15.77;;
58250;SDS011;51449;51.676;5.812;2023-05-07T07:39:28;19.67;;;16.47;;
58250;SDS011;51449;51.676;5.812;2023-05-07T07:41:50;17.87;;;15.50;;
58250;SDS011;51449;51.676;5.812;2023-05-07T07:44:13;17.10;;;15.30;;
58250;SDS011;51449;51.676;5.812;2023-05-07T07:46:40;16.33;;;14.50;;
58250;SDS011;51449;51.676;5.812;2023-05-07T07:49:02;16.37;;;14.67;;
58250;SDS011;51449;51.676;5.812;2023-05-07T07:51:25;16.53;;;14.80;;
58250;SDS011;51449;51.676;5.812;2023-05-07T07:53:48;15.50;;;13.90;;
58250;SDS011;51449;51.676;5.812;2023-05-07T07:56:09;18.53;;;14.53;;
58250;SDS011;51449;51.676;5.812;2023-05-07T07:58:31;16.17;;;14.00;;
58250;SDS011;51449;51.676;5.812;2023-05-07T08:00:54;16.47;;;14.37;;
58250;SDS011;51449;51.676;5.812;2023-05-07T08:03:18;17.45;;;14.48;;
58250;SDS011;51449;51.676;5.812;2023-05-07T08:05:45;16.17;;;14.47;;
58250;SDS011;51449;51.676;5.812;2023-05-07T08:08:07;15.97;;;14.13;;
58250;SDS011;51449;51.676;5.812;2023-05-07T08:10:31;15.10;;;13.60;;
58250;SDS011;51449;51.676;5.812;2023-05-07T08:13:01;15.90;;;14.20;;
58250;SDS011;51449;51.676;5.812;2023-05-07T08:15:25;14.93;;;13.35;;
58250;SDS011;51449;51.676;5.812;2023-05-07T08:17:47;15.10;;;13.50;;
58250;SDS011;51449;51.676;5.812;2023-05-07T08:20:09;17.10;;;13.87;;
58250;SDS011;51449;51.676;5.812;2023-05-07T08:22:32;15.73;;;14.02;;
58250;SDS011;51449;51.676;5.812;2023-05-07T08:24:56;15.95;;;13.10;;
58250;SDS011;51449;51.676;5.812;2023-05-07T08:27:18;16.67;;;13.70;;
58250;SDS011;51449;51.676;5.812;2023-05-07T08:29:40;15.38;;;13.70;;
58250;SDS011;51449;51.676;5.812;2023-05-07T08:32:02;15.50;;;13.15;;
58250;SDS011;51449;51.676;5.812;2023-05-07T08:34:24;14.77;;;13.27;;
58250;SDS011;51449;51.676;5.812;2023-05-07T08:36:47;14.25;;;12.40;;
58250;SDS011;51449;51.676;5.812;2023-05-07T08:39:12;15.15;;;13.10;;
58250;SDS011;51449;51.676;5.812;2023-05-07T08:41:34;14.40;;;12.05;;
58250;SDS011;51449;51.676;5.812;2023-05-07T08:43:58;14.27;;;12.68;;
58250;SDS011;51449;51.676;5.812;2023-05-07T08:46:24;15.00;;;12.57;;
58250;SDS011;51449;51.676;5.812;2023-05-07T08:48:50;12.90;;;11.60;;
58250;SDS011;51449;51.676;5.812;2023-05-07T08:51:16;13.48;;;12.07;;
58250;SDS011;51449;51.676;5.812;2023-05-07T08:53:41;13.70;;;11.52;;
58250;SDS011;51449;51.676;5.812;2023-05-07T08:56:08;15.02;;;11.63;;
58250;SDS011;51449;51.676;5.812;2023-05-07T08:58:30;12.55;;;11.25;;
58250;SDS011;51449;51.676;5.812;2023-05-07T09:00:53;12.25;;;11.05;;
58250;SDS011;51449;51.676;5.812;2023-05-07T09:03:16;12.80;;;11.48;;
58250;SDS011;51449;51.676;5.812;2023-05-07T09:05:41;13.75;;;11.68;;
58250;SDS011;51449;51.676;5.812;2023-05-07T09:08:07;13.95;;;11.15;;
58250;SDS011;51449;51.676;5.812;2023-05-07T09:10:32;12.35;;;11.05;;
58250;SDS011;51449;51.676;5.812;2023-05-07T09:12:56;11.90;;;10.60;;
58250;SDS011;51449;51.676;5.812;2023-05-07T09:15:18;12.65;;;11.18;;
58250;SDS011;51449;51.676;5.812;2023-05-07T09:17:40;13.20;;;11.82;;
58250;SDS011;51449;51.676;5.812;2023-05-07T09:20:07;12.63;;;11.43;;
58250;SDS011;51449;51.676;5.812;2023-05-07T09:22:32;13.55;;;12.00;;
58250;SDS011;51449;51.676;5.812;2023-05-07T09:24:59;12.93;;;11.63;;
58250;SDS011;51449;51.676;5.812;2023-05-07T09:27:22;13.05;;;11.80;;
58250;SDS011;51449;51.676;5.812;2023-05-07T09:29:44;14.15;;;12.40;;
58250;SDS011;51449;51.676;5.812;2023-05-07T09:32:08;12.80;;;11.55;;
58250;SDS011;51449;51.676;5.812;2023-05-07T09:34:30;14.00;;;12.40;;
58250;SDS011;51449;51.676;5.812;2023-05-07T09:36:52;13.50;;;12.10;;
58250;SDS011;51449;51.676;5.812;2023-05-07T09:39:15;14.05;;;12.38;;
58250;SDS011;51449;51.676;5.812;2023-05-07T09:41:44;13.20;;;11.88;;
58250;SDS011;51449;51.676;5.812;2023-05-07T09:44:15;13.23;;;11.88;;
58250;SDS011;51449;51.676;5.812;2023-05-07T09:46:42;11.88;;;10.75;;
58250;SDS011;51449;51.676;5.812;2023-05-07T09:49:23;11.40;;;10.00;;
58250;SDS011;51449;51.676;5.812;2023-05-07T09:51:54;11.00;;;9.85;;
58250;SDS011;51449;51.676;5.812;2023-05-07T09:54:19;11.48;;;10.32;;
58250;SDS011;51449;51.676;5.812;2023-05-07T09:56:44;12.35;;;11.05;;
58250;SDS011;51449;51.676;5.812;2023-05-07T09:59:07;13.50;;;11.30;;
58250;SDS011;51449;51.676;5.812;2023-05-07T10:01:35;12.48;;;11.18;;
58250;SDS011;51449;51.676;5.812;2023-05-07T10:03:58;12.07;;;10.80;;
58250;SDS011;51449;51.676;5.812;2023-05-07T10:06:25;12.43;;;10.45;;
58250;SDS011;51449;51.676;5.812;2023-05-07T10:08:48;11.80;;;10.60;;
58250;SDS011;51449;51.676;5.812;2023-05-07T10:11:12;11.80;;;10.60;;
58250;SDS011;51449;51.676;5.812;2023-05-07T10:13:37;12.27;;;11.07;;
58250;SDS011;51449;51.676;5.812;2023-05-07T10:16:05;9.90;;;8.88;;
58250;SDS011;51449;51.676;5.812;2023-05-07T10:18:34;10.90;;;9.80;;
58250;SDS011;51449;51.676;5.812;2023-05-07T10:21:18;11.57;;;9.93;;
58250;SDS011;51449;51.676;5.812;2023-05-07T10:23:44;15.43;;;10.43;;
58250;SDS011;51449;51.676;5.812;2023-05-07T10:26:12;10.32;;;9.32;;
58250;SDS011;51449;51.676;5.812;2023-05-07T10:28:38;11.00;;;8.57;;
58250;SDS011;51449;51.676;5.812;2023-05-07T10:34:10;11.05;;;9.27;;
58250;SDS011;51449;51.676;5.812;2023-05-07T10:36:40;11.63;;;9.60;;
58250;SDS011;51449;51.676;5.812;2023-05-07T10:39:04;11.00;;;9.90;;
58250;SDS011;51449;51.676;5.812;2023-05-07T10:41:29;12.23;;;10.40;;
58250;SDS011;51449;51.676;5.812;2023-05-07T10:43:51;12.30;;;10.13;;
58250;SDS011;51449;51.676;5.812;2023-05-07T10:46:19;12.02;;;10.68;;
58250;SDS011;51449;51.676;5.812;2023-05-07T10:52:15;9.75;;;8.75;;
58250;SDS011;51449;51.676;5.812;2023-05-07T10:54:46;9.07;;;8.13;;
58250;SDS011;51449;51.676;5.812;2023-05-07T11:05:31;10.13;;;8.85;;
58250;SDS011;51449;51.676;5.812;2023-05-07T11:08:08;10.13;;;8.60;;
58250;SDS011;51449;51.676;5.812;2023-05-07T11:11:17;8.80;;;7.90;;
58250;SDS011;51449;51.676;5.812;2023-05-07T11:13:44;8.48;;;7.35;;
58250;SDS011;51449;51.676;5.812;2023-05-07T11:16:31;9.43;;;8.43;;
58250;SDS011;51449;51.676;5.812;2023-05-07T11:19:06;8.68;;;7.80;;
58250;SDS011;51449;51.676;5.812;2023-05-07T11:21:35;8.82;;;7.93;;
58250;SDS011;51449;51.676;5.812;2023-05-07T11:24:30;9.38;;;7.43;;
58250;SDS011;51449;51.676;5.812;2023-05-07T11:27:05;10.82;;;8.13;;
58250;SDS011;51449;51.676;5.812;2023-05-07T11:29:27;8.68;;;6.55;;
58250;SDS011;51449;51.676;5.812;2023-05-07T11:31:57;8.85;;;6.55;;
58250;SDS011;51449;51.676;5.812;2023-05-07T11:34:26;8.10;;;6.00;;
58250;SDS011;51449;51.676;5.812;2023-05-07T11:39:32;7.22;;;5.60;;
58250;SDS011;51449;51.676;5.812;2023-05-07T11:42:01;7.28;;;5.18;;
58250;SDS011;51449;51.676;5.812;2023-05-07T11:50:51;6.05;;;5.07;;
58250;SDS011;51449;51.676;5.812;2023-05-07T11:53:24;6.32;;;5.25;;
58250;SDS011;51449;51.676;5.812;2023-05-07T11:55:47;7.65;;;5.47;;
58250;SDS011;51449;51.676;5.812;2023-05-07T11:58:10;6.90;;;5.60;;
58250;SDS011;51449;51.676;5.812;2023-05-07T12:00:34;6.43;;;5.60;;
58250;SDS011;51449;51.676;5.812;2023-05-07T12:02:56;6.65;;;5.18;;
58250;SDS011;51449;51.676;5.812;2023-05-07T12:05:18;6.50;;;5.38;;
58250;SDS011;51449;51.676;5.812;2023-05-07T12:07:40;7.57;;;5.75;;
58250;SDS011;51449;51.676;5.812;2023-05-07T12:10:05;7.70;;;5.70;;
58250;SDS011;51449;51.676;5.812;2023-05-07T12:12:28;6.88;;;5.35;;
58250;SDS011;51449;51.676;5.812;2023-05-07T12:14:50;5.85;;;5.10;;
58250;SDS011;51449;51.676;5.812;2023-05-07T12:17:12;5.90;;;4.30;;
58250;SDS011;51449;51.676;5.812;2023-05-07T12:19:36;5.88;;;4.20;;
58250;SDS011;51449;51.676;5.812;2023-05-07T12:22:03;4.43;;;3.78;;
58250;SDS011;51449;51.676;5.812;2023-05-07T12:24:27;6.00;;;5.18;;
58250;SDS011;51449;51.676;5.812;2023-05-07T12:26:49;6.22;;;5.25;;
58250;SDS011;51449;51.676;5.812;2023-05-07T12:29:11;5.45;;;4.82;;
58250;SDS011;51449;51.676;5.812;2023-05-07T12:34:21;6.28;;;4.97;;
58250;SDS011;51449;51.676;5.812;2023-05-07T12:36:47;6.40;;;4.70;;
58250;SDS011;51449;51.676;5.812;2023-05-07T12:41:36;5.35;;;4.43;;
58250;SDS011;51449;51.676;5.812;2023-05-07T12:44:15;6.65;;;4.82;;
58250;SDS011;51449;51.676;5.812;2023-05-07T12:49:25;6.95;;;4.75;;
58250;SDS011;51449;51.676;5.812;2023-05-07T12:52:07;6.32;;;4.35;;
58250;SDS011;51449;51.676;5.812;2023-05-07T12:54:30;5.00;;;4.50;;
58250;SDS011;51449;51.676;5.812;2023-05-07T12:57:00;9.15;;;4.68;;
58250;SDS011;51449;51.676;5.812;2023-05-07T12:59:41;5.15;;;4.18;;
58250;SDS011;51449;51.676;5.812;2023-05-07T13:04:31;6.47;;;4.70;;
58250;SDS011;51449;51.676;5.812;2023-05-07T13:06:54;5.07;;;4.57;;
58250;SDS011;51449;51.676;5.812;2023-05-07T13:09:15;4.72;;;4.30;;
58250;SDS011;51449;51.676;5.812;2023-05-07T13:11:40;5.65;;;4.50;;
58250;SDS011;51449;51.676;5.812;2023-05-07T13:14:01;7.50;;;5.13;;
58250;SDS011;51449;51.676;5.812;2023-05-07T13:16:23;4.82;;;4.35;;
58250;SDS011;51449;51.676;5.812;2023-05-07T13:18:45;4.45;;;3.90;;
58250;SDS011;51449;51.676;5.812;2023-05-07T13:21:07;7.38;;;4.50;;
58250;SDS011;51449;51.676;5.812;2023-05-07T13:23:29;4.68;;;4.10;;
58250;SDS011;51449;51.676;5.812;2023-05-07T13:25:51;5.40;;;4.20;;
58250;SDS011;51449;51.676;5.812;2023-05-07T13:28:17;4.35;;;3.95;;
58250;SDS011;51449;51.676;5.812;2023-05-07T13:30:39;6.90;;;3.70;;
58250;SDS011;51449;51.676;5.812;2023-05-07T13:33:01;5.13;;;3.90;;
58250;SDS011;51449;51.676;5.812;2023-05-07T13:35:23;5.03;;;4.10;;
58250;SDS011;51449;51.676;5.812;2023-05-07T13:37:47;4.32;;;3.92;;
58250;SDS011;51449;51.676;5.812;2023-05-07T13:40:13;4.13;;;3.53;;
58250;SDS011;51449;51.676;5.812;2023-05-07T13:42:35;5.88;;;4.15;;
58250;SDS011;51449;51.676;5.812;2023-05-07T13:44:56;4.65;;;3.70;;
58250;SDS011;51449;51.676;5.812;2023-05-07T13:47:18;5.93;;;3.55;;
58250;SDS011;51449;51.676;5.812;2023-05-07T13:49:42;6.93;;;3.67;;
58250;SDS011;51449;51.676;5.812;2023-05-07T13:52:04;3.80;;;3.50;;
58250;SDS011;51449;51.676;5.812;2023-05-07T13:54:25;6.15;;;4.65;;
58250;SDS011;51449;51.676;5.812;2023-05-07T13:56:47;2.35;;;1.70;;
58250;SDS011;51449;51.676;5.812;2023-05-07T13:59:11;1.58;;;1.48;;
58250;SDS011;51449;51.676;5.812;2023-05-07T14:04:06;1.48;;;1.35;;
58250;SDS011;51449;51.676;5.812;2023-05-07T14:06:34;2.00;;;1.40;;
58250;SDS011;51449;51.676;5.812;2023-05-07T14:09:00;3.00;;;1.42;;
58250;SDS011;51449;51.676;5.812;2023-05-07T14:14:14;2.38;;;1.80;;
58250;SDS011;51449;51.676;5.812;2023-05-07T14:16:37;2.60;;;2.00;;
58250;SDS011;51449;51.676;5.812;2023-05-07T14:18:59;1.83;;;1.73;;
58250;SDS011;51449;51.676;5.812;2023-05-07T14:21:21;1.67;;;1.58;;
58250;SDS011;51449;51.676;5.812;2023-05-07T14:27:37;1.80;;;1.50;;
58250;SDS011;51449;51.676;5.812;2023-05-07T14:29:59;2.45;;;1.35;;
58250;SDS011;51449;51.676;5.812;2023-05-07T14:32:24;3.53;;;1.50;;
58250;SDS011;51449;51.676;5.812;2023-05-07T14:34:46;2.53;;;1.40;;
58250;SDS011;51449;51.676;5.812;2023-05-07T14:37:08;2.23;;;1.53;;
58250;SDS011;51449;51.676;5.812;2023-05-07T14:39:31;2.30;;;1.53;;
58250;SDS011;51449;51.676;5.812;2023-05-07T14:41:52;3.43;;;1.93;;
58250;SDS011;51449;51.676;5.812;2023-05-07T14:44:16;2.67;;;1.80;;
58250;SDS011;51449;51.676;5.812;2023-05-07T14:46:37;1.77;;;1.20;;
58250;SDS011;51449;51.676;5.812;2023-05-07T14:49:01;3.97;;;1.17;;
58250;SDS011;51449;51.676;5.812;2023-05-07T14:51:23;4.65;;;1.60;;
58250;SDS011;51449;51.676;5.812;2023-05-07T14:53:47;1.73;;;1.30;;
58250;SDS011;51449;51.676;5.812;2023-05-07T14:56:09;5.50;;;1.70;;